Weather at Evart Municipal Airport

Public forecast

Using degrees Fahrenheit for public forecast. Weather courtesy of forecast.io.

Closest aviation weather report (METAR) to Evart Municipal Airport

Closest report is Roben Hood Airport, 14.3 nm (26.4 km) SW. Retrieved 2020/10/21 12:35 UTC (0 seconds ago):

KRQB 211235Z AUTO 27007KT 10SM OVC011 09/07 A3002 RMK AO2 T00860074

Closest aviation forecast (TAF) to Evart Municipal Airport

Closest forecast is Manistee Co Blacker Airport, 47.5 nm (87.9 km) WNW. Retrieved 2020/10/21 12:27 UTC (0 seconds ago):

TAF KMBL 211124Z 2112/2212 27012G24KT P6SM SCT005 OVC018 TEMPO 2112/2115 OVC007 FM211500 26013G23KT P6SM BKN022 FM211700 26012G23KT P6SM BKN045 FM211900 26012G21KT P6SM BKN100 FM212100 27009KT P6SM BKN100 FM212300 24006KT P6SM BKN100